Terminal Aerodrome Forecast
Issued by NWS

Home | Current Version | Previous Version | Text Only | Print | Product List | Glossary On
Versions: 1 2 3 4 5 6 7 8 9 10 11 12 13 14 15 16 17 18 19 20 21 22 23 24 25 26 27 28
515
FTUS45 KGJT 231120
TAFRIL
TAF
KRIL 231120Z 2312/2412 11003KT P6SM FEW140 SCT250
     FM231900 28008KT P6SM SCT120
     FM240200 14007KT P6SM BKN130=

USA.gov is the U.S. government's official web portal to all federal, state and local government web resources and services.